Minneapolis, Minnesota
Traffic Map
Current Weather Conditions
Minneapolis, Minnesota
Overcast
Overcast
39°
Feels Like: 32°
Wind Chill: 32° Ceiling: 4400
Heat Index: 39° Visibility: 10mi
Dew Point: 29° Wind: 12mph
Humidity: 67% Direction: 320° (NW)
Pressure: 29.87in Gusts: 0mph
Raw Report DataKMSP 270053Z 32010KT 10SM OVC044 04/M02 A2987 RMK AO2 SLP123 T00391017
Traffic Incident Summary
Active as of:
Severity:
Category:
InformationThere was an issue retrieving the traffic information for this location. Please try a different location or try again shortly.
Advertisements
Track Severe Weather on mobile